Time;durP1;ratioP1;P1;durP2;ratioP2;P2;SDS_P1;SDS_P2;PMS_P1;PMS_P2;Temp;Humidity;BMP_temperature;BMP_pressure;BME280_temperature;BME280_humidity;BME280_pressure;Samples;Min_cycle;Max_cycle;Signal;HPM_P1;HPM_P2
2023/07/17 00:01:33;;;;;;;5.80;3.60;;;17.00;91.40;;;;;;5085498;28;20165;-78
2023/07/17 00:03:58;;;;;;;5.07;3.20;;;17.00;91.70;;;;;;5084938;28;20175;-78
2023/07/17 00:06:24;;;;;;;5.20;3.10;;;17.00;91.70;;;;;;5083771;28;20176;-77
2023/07/17 00:08:49;;;;;;;5.03;3.20;;;17.00;93.20;;;;;;5083397;28;20205;-77
2023/07/17 00:11:15;;;;;;;3.50;3.20;;;16.90;93.40;;;;;;5080712;28;20165;-76
2023/07/17 00:13:41;;;;;;;4.27;2.90;;;16.90;93.40;;;;;;5077471;28;20569;-76
2023/07/17 00:16:07;;;;;;;5.20;3.13;;;16.90;94.40;;;;;;5078712;28;20173;-76
2023/07/17 00:18:34;;;;;;;5.63;3.47;;;16.90;94.50;;;;;;5077621;28;20184;-77
2023/07/17 00:21:01;;;;;;;4.43;3.30;;;16.90;95.00;;;;;;5078196;28;20176;-79
2023/07/17 00:23:26;;;;;;;4.47;2.67;;;17.00;95.10;;;;;;5079990;28;20175;-79
2023/07/17 00:25:52;;;;;;;6.23;3.23;;;17.00;94.40;;;;;;5081747;28;20684;-78
2023/07/17 00:28:18;;;;;;;6.03;3.10;;;16.90;94.60;;;;;;5084546;28;20203;-78
2023/07/17 00:30:44;;;;;;;4.20;2.90;;;17.00;96.20;;;;;;5085146;28;20218;-79
2023/07/17 00:33:09;;;;;;;3.83;2.97;;;17.00;94.90;;;;;;5086672;28;20172;-79
2023/07/17 00:35:35;;;;;;;4.60;3.10;;;17.00;91.70;;;;;;5083764;28;20172;-77
2023/07/17 00:38:01;;;;;;;4.60;3.30;;;17.10;89.50;;;;;;5086894;28;20218;-78
2023/07/17 00:40:26;;;;;;;4.57;3.13;;;17.10;83.80;;;;;;5088552;28;20224;-77
2023/07/17 00:43:01;;;;;;;9.67;3.10;;;17.00;84.50;;;;;;5087119;28;20176;-77
2023/07/17 00:45:31;;;;;;;6.23;2.83;;;17.00;80.60;;;;;;5083076;28;20168;-77
2023/07/17 00:47:58;;;;;;;3.97;2.83;;;16.80;87.30;;;;;;5063101;28;20165;-78
2023/07/17 00:50:24;;;;;;;6.93;2.93;;;16.80;90.00;;;;;;5081085;28;20203;-78
2023/07/17 00:52:50;;;;;;;3.50;2.33;;;16.70;90.90;;;;;;5079953;28;20179;-77
2023/07/17 00:55:18;;;;;;;3.50;2.63;;;16.70;91.70;;;;;;5076801;28;20172;-76
2023/07/17 00:57:44;;;;;;;6.63;2.70;;;16.60;93.60;;;;;;5077676;28;20173;-77
2023/07/17 01:00:12;;;;;;;4.33;2.50;;;16.60;93.90;;;;;;5076540;28;20229;-77
2023/07/17 01:02:39;;;;;;;5.07;2.80;;;16.60;94.30;;;;;;5076483;28;20541;-78
2023/07/17 01:05:05;;;;;;;4.63;2.80;;;16.50;94.70;;;;;;5078096;28;20206;-78
2023/07/17 01:07:31;;;;;;;4.57;2.93;;;16.50;95.10;;;;;;5078679;28;20200;-77
2023/07/17 01:09:56;;;;;;;5.80;2.80;;;16.50;96.00;;;;;;5077867;28;20204;-77
2023/07/17 01:12:22;;;;;;;4.03;2.70;;;16.40;96.00;;;;;;5079658;28;20172;-77
2023/07/17 01:14:48;;;;;;;4.57;2.50;;;16.40;96.90;;;;;;5077805;28;20280;-77
2023/07/17 01:17:13;;;;;;;5.63;2.63;;;16.40;96.40;;;;;;5077166;28;20259;-76
2023/07/17 01:19:39;;;;;;;5.50;2.63;;;16.40;95.90;;;;;;5076260;28;20179;-76
2023/07/17 01:22:22;;;;;;;3.93;2.60;;;16.30;97.10;;;;;;5057569;28;20176;-76
2023/07/17 01:24:48;;;;;;;5.23;2.67;;;16.30;99.90;;;;;;5075080;28;20176;-77
2023/07/17 01:27:15;;;;;;;5.93;2.90;;;16.20;99.90;;;;;;5075180;28;20226;-77
2023/07/17 01:29:41;;;;;;;5.30;2.60;;;16.10;99.90;;;;;;5075143;28;20302;-77
2023/07/17 01:32:06;;;;;;;3.93;2.90;;;16.20;99.90;;;;;;5075487;28;20616;-76
2023/07/17 01:34:32;;;;;;;4.10;2.73;;;16.10;99.90;;;;;;5074468;28;20204;-77
2023/07/17 01:36:58;;;;;;;5.40;2.73;;;16.10;99.90;;;;;;5074465;28;20305;-76
2023/07/17 01:39:24;;;;;;;3.57;2.87;;;16.10;99.90;;;;;;5074381;28;20605;-78
2023/07/17 01:41:50;;;;;;;5.53;2.70;;;16.10;99.90;;;;;;5076952;28;20173;-76
2023/07/17 01:44:35;;;;;;;7.40;2.90;;;16.10;99.90;;;;;;5077698;28;20322;-77
2023/07/17 01:47:01;;;;;;;3.90;2.40;;;16.10;99.90;;;;;;5078134;28;20638;-77
2023/07/17 01:49:27;;;;;;;3.77;2.47;;;16.00;99.90;;;;;;5078209;28;20208;-77
2023/07/17 01:51:52;;;;;;;3.53;2.57;;;16.10;99.90;;;;;;5078111;28;20204;-77
2023/07/17 01:54:18;;;;;;;5.57;2.67;;;16.10;99.90;;;;;;5077913;28;20183;-77
2023/07/17 01:56:44;;;;;;;5.37;2.80;;;16.00;99.90;;;;;;5060469;28;20176;-76
2023/07/17 01:59:09;;;;;;;2.90;2.60;;;15.90;99.90;;;;;;5078339;28;20683;-77
2023/07/17 02:01:35;;;;;;;4.67;2.50;;;15.90;99.90;;;;;;5078033;28;20169;-77
2023/07/17 02:04:01;;;;;;;4.37;2.60;;;15.90;99.90;;;;;;5076924;28;20184;-76
2023/07/17 02:06:28;;;;;;;5.50;2.77;;;15.80;99.90;;;;;;5076783;28;20180;-76
2023/07/17 02:08:54;;;;;;;6.17;3.07;;;15.80;99.90;;;;;;5076469;28;20251;-76
2023/07/17 02:11:19;;;;;;;5.60;2.77;;;15.80;99.90;;;;;;5076569;28;20196;-76
2023/07/17 02:13:45;;;;;;;5.27;2.87;;;15.80;99.90;;;;;;5058763;28;20173;-76
2023/07/17 02:16:10;;;;;;;8.60;3.07;;;15.70;99.90;;;;;;5077175;28;20685;-76
2023/07/17 02:18:36;;;;;;;5.53;2.67;;;15.70;99.90;;;;;;5075999;28;20267;-77
2023/07/17 02:21:02;;;;;;;5.90;2.90;;;15.70;99.90;;;;;;5076396;28;20169;-77
2023/07/17 02:23:27;;;;;;;5.33;2.90;;;15.70;99.90;;;;;;5076276;28;20639;-75
2023/07/17 02:25:53;;;;;;;4.27;3.07;;;15.70;99.90;;;;;;5076213;28;20181;-75
2023/07/17 02:28:18;;;;;;;3.63;2.73;;;15.60;99.90;;;;;;5075819;28;20620;-75
2023/07/17 02:30:44;;;;;;;6.00;2.80;;;15.70;99.90;;;;;;5076399;28;20219;-77
2023/07/17 02:33:10;;;;;;;6.40;2.73;;;15.70;99.90;;;;;;5058151;28;20168;-75
2023/07/17 02:35:35;;;;;;;6.23;2.70;;;15.60;99.90;;;;;;5076169;28;20263;-78
2023/07/17 02:38:01;;;;;;;4.03;2.40;;;15.60;99.90;;;;;;5076462;28;20168;-76
2023/07/17 02:40:27;;;;;;;4.83;2.70;;;15.60;99.90;;;;;;5042691;28;20256;-77
2023/07/17 02:42:52;;;;;;;4.50;2.87;;;15.50;99.90;;;;;;5035352;28;20178;-77
2023/07/17 02:45:18;;;;;;;4.27;2.57;;;15.50;99.90;;;;;;5036420;28;20166;-76
2023/07/17 02:47:43;;;;;;;2.83;2.50;;;15.60;99.90;;;;;;5036396;28;20637;-76
2023/07/17 02:50:09;;;;;;;8.03;2.70;;;15.50;99.90;;;;;;5036828;28;20245;-77
2023/07/17 02:52:36;;;;;;;6.60;2.53;;;15.50;99.90;;;;;;5036301;28;20173;-77
2023/07/17 02:55:05;;;;;;;6.47;2.80;;;15.50;99.90;;;;;;5036626;28;20535;-77
2023/07/17 02:57:34;;;;;;;6.67;2.53;;;15.50;99.90;;;;;;5036423;28;20171;-77
2023/07/17 03:00:08;;;;;;;6.60;2.60;;;15.40;99.90;;;;;;5036739;28;20172;-76
2023/07/17 03:02:35;;;;;;;4.23;2.80;;;15.40;99.90;;;;;;5036258;28;20264;-77
2023/07/17 03:05:04;;;;;;;3.47;3.00;;;15.40;99.90;;;;;;5035370;28;20301;-75
2023/07/17 03:07:34;;;;;;;4.70;2.63;;;15.30;99.90;;;;;;5035502;28;20216;-77
2023/07/17 03:09:59;;;;;;;6.03;2.80;;;15.40;99.90;;;;;;5035696;28;20703;-77
2023/07/17 03:12:25;;;;;;;6.53;2.90;;;15.40;99.90;;;;;;5035658;28;20257;-77
2023/07/17 03:14:51;;;;;;;4.30;3.00;;;15.40;99.90;;;;;;5035519;28;20178;-77
2023/07/17 03:17:16;;;;;;;4.10;3.10;;;15.40;99.90;;;;;;5035356;28;20277;-77
2023/07/17 03:19:42;;;;;;;4.50;3.30;;;15.30;99.90;;;;;;5035076;28;20202;-76
2023/07/17 03:22:07;;;;;;;5.63;3.20;;;15.30;99.90;;;;;;5034920;28;20178;-76
2023/07/17 03:24:33;;;;;;;5.60;3.00;;;15.30;99.90;;;;;;5035187;28;20532;-76
2023/07/17 03:26:59;;;;;;;5.37;3.07;;;15.30;99.90;;;;;;5035119;28;20184;-76
2023/07/17 03:29:26;;;;;;;7.10;3.70;;;15.30;99.90;;;;;;5034740;28;20209;-76
2023/07/17 03:31:53;;;;;;;6.00;3.30;;;15.40;99.90;;;;;;5034971;28;20216;-77
2023/07/17 03:34:19;;;;;;;5.17;3.37;;;15.30;99.90;;;;;;5034938;28;20254;-77
2023/07/17 03:36:45;;;;;;;4.27;3.33;;;15.30;99.90;;;;;;5034963;28;20193;-77
2023/07/17 03:39:11;;;;;;;4.47;3.27;;;15.30;99.90;;;;;;5038325;28;20170;-77
2023/07/17 03:41:37;;;;;;;4.80;3.27;;;15.30;99.90;;;;;;5074657;28;20523;-76
2023/07/17 03:44:03;;;;;;;5.70;3.50;;;15.20;99.90;;;;;;5074585;28;20203;-76
2023/07/17 03:46:30;;;;;;;5.50;3.33;;;15.20;99.90;;;;;;5055956;28;20716;-76
2023/07/17 03:48:56;;;;;;;4.70;3.53;;;15.20;99.90;;;;;;5074717;28;20204;-80
2023/07/17 03:51:22;;;;;;;5.33;3.27;;;15.20;99.90;;;;;;5056635;28;20245;-76
2023/07/17 03:53:48;;;;;;;6.43;3.40;;;15.20;99.90;;;;;;5074166;28;20204;-77
2023/07/17 03:56:14;;;;;;;5.03;3.30;;;15.20;99.90;;;;;;5074172;28;20183;-76
2023/07/17 03:58:40;;;;;;;7.50;3.57;;;15.20;99.90;;;;;;5074418;28;20530;-76
2023/07/17 04:01:05;;;;;;;4.50;3.20;;;15.20;99.90;;;;;;5074502;28;20176;-77
2023/07/17 04:03:31;;;;;;;6.77;3.60;;;15.20;99.90;;;;;;5073643;28;20210;-76
2023/07/17 04:05:56;;;;;;;6.60;3.50;;;15.30;99.90;;;;;;5074289;28;20542;-78
2023/07/17 04:08:22;;;;;;;5.03;3.43;;;15.40;99.90;;;;;;5074367;28;20189;-78
2023/07/17 04:10:48;;;;;;;6.83;3.27;;;15.50;99.90;;;;;;5073487;28;20612;-77
2023/07/17 04:13:14;;;;;;;5.43;3.40;;;15.60;99.90;;;;;;5074074;28;20195;-78
2023/07/17 04:15:41;;;;;;;5.60;3.67;;;15.90;99.90;;;;;;5074021;28;20181;-77
2023/07/17 04:18:06;;;;;;;8.57;3.67;;;16.10;99.90;;;;;;5074901;28;20176;-78
2023/07/17 04:20:33;;;;;;;5.70;3.43;;;16.20;99.90;;;;;;5057327;28;20180;-78
2023/07/17 04:22:58;;;;;;;6.47;3.87;;;16.20;99.90;;;;;;5058624;28;20578;-78
2023/07/17 04:25:24;;;;;;;5.73;3.63;;;16.30;99.90;;;;;;5077266;28;20173;-78
2023/07/17 04:27:50;;;;;;;8.80;3.90;;;16.50;96.00;;;;;;5077369;28;20577;-78
2023/07/17 04:30:16;;;;;;;6.83;3.50;;;17.10;91.70;;;;;;5075862;28;20236;-79
2023/07/17 04:32:41;;;;;;;7.77;3.77;;;17.70;61.40;;;;;;5075319;28;20322;-80
2023/07/17 04:35:07;;;;;;;5.30;3.67;;;18.00;36.80;;;;;;5075815;28;20181;-79
2023/07/17 04:37:33;;;;;;;7.73;3.40;;;18.40;14.40;;;;;;5075867;28;20177;-81
2023/07/17 04:39:59;;;;;;;5.33;3.70;;;19.00;2.50;;;;;;5075286;28;20224;-81
2023/07/17 04:42:24;;;;;;;7.33;3.70;;;19.40;1.00;;;;;;5074470;28;20176;-82
2023/07/17 04:44:50;;;;;;;4.43;3.33;;;19.80;1.00;;;;;;5076715;28;20259;-79
2023/07/17 04:47:15;;;;;;;5.00;3.60;;;20.40;1.00;;;;;;5075600;28;20596;-80
2023/07/17 04:49:41;;;;;;;4.55;3.13;;;20.90;1.00;;;;;;5074588;28;20218;-79
2023/07/17 04:52:07;;;;;;;4.68;3.30;;;21.30;1.00;;;;;;5074062;28;20175;-80
2023/07/17 04:54:33;;;;;;;6.53;3.60;;;21.50;1.00;;;;;;5074417;28;20184;-80
2023/07/17 04:56:58;;;;;;;6.15;3.45;;;21.50;1.00;;;;;;5074731;28;20168;-80
2023/07/17 04:59:24;;;;;;;8.02;3.33;;;22.00;1.00;;;;;;5074447;28;20271;-78
2023/07/17 05:01:50;;;;;;;7.72;3.50;;;22.20;1.00;;;;;;5074978;28;20199;-79
2023/07/17 05:04:15;;;;;;;4.80;3.70;;;22.50;1.00;;;;;;5073919;28;20267;-81
2023/07/17 05:06:41;;;;;;;4.35;3.70;;;23.20;99.90;;;;;;5072992;28;20187;-78
2023/07/17 05:09:06;;;;;;;5.20;3.45;;;23.60;1.00;;;;;;5072743;28;20201;-77
2023/07/17 05:11:32;;;;;;;3.85;3.42;;;23.90;1.00;;;;;;5072758;28;20179;-77
2023/07/17 05:13:58;;;;;;;4.40;3.10;;;24.00;1.00;;;;;;5072666;28;20500;-77
2023/07/17 05:16:24;;;;;;;4.82;3.30;;;24.10;1.00;;;;;;5058658;28;20268;-78
2023/07/17 05:18:49;;;;;;;7.25;3.80;;;23.60;42.70;;;;;;5076826;28;20183;-77
2023/07/17 05:21:15;;;;;;;8.18;4.38;;;23.70;1.70;;;;;;5076929;28;20179;-77
2023/07/17 05:23:41;;;;;;;7.50;3.75;;;24.80;1.00;;;;;;5076528;28;20169;-78
2023/07/17 05:26:07;;;;;;;5.25;3.97;;;25.40;1.00;;;;;;5076724;28;20187;-77
2023/07/17 05:28:34;;;;;;;5.85;4.05;;;25.10;1.00;;;;;;5075762;28;20208;-79
2023/07/17 05:30:59;;;;;;;6.78;4.40;;;25.70;99.90;;;;;;5058545;28;20189;-78
2023/07/17 05:33:25;;;;;;;8.00;4.15;;;25.40;1.00;;;;;;5076924;28;20172;-79
2023/07/17 05:35:51;;;;;;;4.80;3.90;;;25.70;99.90;;;;;;5076851;28;20173;-79
2023/07/17 05:38:17;;;;;;;7.82;3.95;;;25.90;99.90;;;;;;5076349;28;20157;-77
2023/07/17 05:40:43;;;;;;;5.20;3.80;;;27.00;99.90;;;;;;5076287;28;20691;-79
2023/07/17 05:43:09;;;;;;;7.60;4.20;;;27.40;1.00;;;;;;5076983;28;20168;-79
2023/07/17 05:45:35;;;;;;;4.93;4.00;;;27.50;99.90;;;;;;5079477;28;20636;-79
2023/07/17 05:48:01;;;;;;;5.53;4.47;;;27.70;99.90;;;;;;5076719;28;20188;-78
2023/07/17 05:50:26;;;;;;;5.97;4.47;;;28.30;99.90;;;;;;5076544;28;20212;-77
2023/07/17 05:52:52;;;;;;;8.27;4.43;;;29.40;1.00;;;;;;5076011;28;20173;-77
2023/07/17 05:55:17;;;;;;;4.63;3.90;;;29.60;1.00;;;;;;5058319;28;20207;-79
2023/07/17 05:57:43;;;;;;;8.43;4.72;;;29.80;1.00;;;;;;5058459;28;20184;-78
2023/07/17 06:00:14;;;;;;;6.88;4.72;;;28.90;1.00;;;;;;5078275;28;20176;-78
2023/07/17 06:02:43;;;;;;;4.38;3.92;;;29.20;1.00;;;;;;5078649;28;20164;-79
2023/07/17 06:05:10;;;;;;;6.00;5.03;;;29.40;1.00;;;;;;5079427;28;20180;-78
2023/07/17 06:07:36;;;;;;;6.55;4.43;;;27.80;5.40;;;;;;5077064;28;20256;-78
2023/07/17 06:10:02;;;;;;;10.23;5.10;;;28.50;1.00;;;;;;5078318;28;20232;-79
2023/07/17 06:12:27;;;;;;;6.10;4.93;;;28.70;1.00;;;;;;5077869;28;20580;-78
2023/07/17 06:14:53;;;;;;;7.40;5.18;;;29.30;1.00;;;;;;5077522;28;20207;-78
2023/07/17 06:17:18;;;;;;;7.53;5.43;;;29.90;1.00;;;;;;5075477;28;20172;-79
2023/07/17 06:19:44;;;;;;;8.73;4.95;;;29.90;1.00;;;;;;5075882;28;20260;-78
2023/07/17 06:22:09;;;;;;;7.30;5.15;;;29.60;1.00;;;;;;5075520;28;20172;-78
2023/07/17 06:24:35;;;;;;;6.00;5.30;;;29.50;1.00;;;;;;5075940;28;20530;-78
2023/07/17 06:27:01;;;;;;;7.68;5.60;;;30.00;1.00;;;;;;5074556;28;20667;-78
2023/07/17 06:29:27;;;;;;;7.43;5.32;;;30.90;1.00;;;;;;5075679;28;20322;-79
2023/07/17 06:31:52;;;;;;;7.93;5.50;;;31.20;99.90;;;;;;5072902;28;20180;-79
2023/07/17 06:34:21;;;;;;;8.98;5.28;;;31.10;99.90;;;;;;5039169;28;20196;-79
2023/07/17 06:36:48;;;;;;;7.13;5.03;;;31.10;99.90;;;;;;5068655;28;20189;-79
2023/07/17 06:39:13;;;;;;;7.72;5.43;;;31.20;99.90;;;;;;5064498;28;20181;-80
2023/07/17 06:41:39;;;;;;;9.52;5.95;;;31.10;99.90;;;;;;5075905;28;20197;-79
2023/07/17 06:44:04;;;;;;;9.48;6.13;;;30.90;99.90;;;;;;5074937;28;20181;-80
2023/07/17 06:46:30;;;;;;;9.88;6.30;;;31.20;99.90;;;;;;5076549;28;20628;-80
2023/07/17 06:48:56;;;;;;;10.40;6.38;;;29.20;1.00;;;;;;5073645;28;20219;-78
2023/07/17 06:51:22;;;;;;;7.90;6.00;;;29.70;1.00;;;;;;5074345;28;20216;-80
2023/07/17 06:53:48;;;;;;;8.50;6.03;;;29.60;1.00;;;;;;5068371;28;20200;-78
2023/07/17 06:56:14;;;;;;;11.93;6.05;;;28.50;1.00;;;;;;5079384;28;20191;-79
2023/07/17 06:58:39;;;;;;;8.38;6.65;;;28.30;1.00;;;;;;5081166;28;20181;-80
2023/07/17 07:01:05;;;;;;;10.23;6.55;;;27.80;94.30;;;;;;5063858;28;20541;-82
2023/07/17 07:03:31;;;;;;;12.25;6.60;;;28.00;1.00;;;;;;5066185;28;20532;-84
2023/07/17 07:06:00;;;;;;;9.18;6.70;;;27.70;99.90;;;;;;5055159;28;20188;-84
2023/07/17 07:08:27;;;;;;;6.95;6.25;;;27.80;6.80;;;;;;5072749;28;20192;-86
2023/07/17 07:10:54;;;;;;;8.65;6.38;;;27.60;99.90;;;;;;5061233;28;20220;-84
2023/07/17 07:13:21;;;;;;;8.15;6.30;;;26.80;1.00;;;;;;5066335;28;20619;-83
2023/07/17 07:15:47;;;;;;;9.18;6.90;;;26.30;44.80;;;;;;5054433;28;20189;-83
2023/07/17 07:18:13;;;;;;;11.35;6.45;;;26.20;99.90;;;;;;5056210;28;20177;-82
2023/07/17 07:20:39;;;;;;;10.32;7.13;;;26.90;1.00;;;;;;5053809;28;20173;-83
2023/07/17 07:23:04;;;;;;;10.52;6.28;;;26.80;1.00;;;;;;5059602;28;20272;-83
2023/07/17 07:25:30;;;;;;;9.38;6.50;;;26.10;1.00;;;;;;5072501;28;20173;-83
2023/07/17 07:27:56;;;;;;;8.98;6.80;;;26.00;1.00;;;;;;5073836;28;20172;-83
2023/07/17 07:30:22;;;;;;;10.07;6.88;;;24.80;98.00;;;;;;5059396;28;20221;-82
2023/07/17 07:32:48;;;;;;;9.38;6.47;;;25.00;1.00;;;;;;5061920;28;20540;-84
2023/07/17 07:35:13;;;;;;;9.60;6.90;;;25.30;99.90;;;;;;5070802;28;20227;-83
2023/07/17 07:37:40;;;;;;;10.48;6.38;;;25.70;1.00;;;;;;5062494;28;20739;-82
2023/07/17 07:40:09;;;;;;;10.80;7.07;;;26.50;29.80;;;;;;5068519;28;20221;-81
2023/07/17 07:42:35;;;;;;;8.13;6.50;;;25.80;99.90;;;;;;5054351;28;20173;-82
2023/07/17 07:45:00;;;;;;;7.13;6.40;;;26.90;1.00;;;;;;5059040;28;20176;-81
2023/07/17 07:47:26;;;;;;;8.88;6.13;;;26.80;99.90;;;;;;5070080;28;20545;-81
2023/07/17 07:49:51;;;;;;;9.20;6.75;;;26.10;1.00;;;;;;5073004;28;20212;-81
2023/07/17 07:52:17;;;;;;;9.35;6.63;;;25.10;1.00;;;;;;5065284;28;20192;-81
2023/07/17 07:54:45;;;;;;;8.43;6.75;;;25.10;99.90;;;;;;5071671;28;20188;-81
2023/07/17 07:57:11;;;;;;;8.85;6.30;;;25.90;1.00;;;;;;5061206;28;20184;-83
2023/07/17 07:59:36;;;;;;;9.50;6.32;;;26.50;1.00;;;;;;5073658;28;20173;-82
2023/07/17 08:02:02;;;;;;;7.90;6.10;;;26.10;1.00;;;;;;5063351;28;20610;-81
2023/07/17 08:04:28;;;;;;;9.25;5.93;;;27.20;99.90;;;;;;5065078;28;20177;-80
2023/07/17 08:06:55;;;;;;;9.52;6.00;;;29.50;1.00;;;;;;5069809;28;20707;-82
2023/07/17 08:09:21;;;;;;;8.85;6.43;;;29.60;1.00;;;;;;5063541;28;20196;-82
2023/07/17 08:11:46;;;;;;;8.65;5.97;;;29.70;1.00;;;;;;5067864;28;20233;-81
2023/07/17 08:14:12;;;;;;;8.05;6.30;;;29.10;1.00;;;;;;5071465;28;20234;-81
2023/07/17 08:16:38;;;;;;;8.05;6.07;;;28.40;1.00;;;;;;5068892;28;20185;-83
2023/07/17 08:19:03;;;;;;;8.32;6.35;;;28.30;1.00;;;;;;5064705;28;20185;-83
2023/07/17 08:21:29;;;;;;;8.88;5.80;;;26.70;99.90;;;;;;5069427;28;20526;-82
2023/07/17 08:23:55;;;;;;;7.22;6.10;;;26.10;1.00;;;;;;5052504;28;20180;-83
2023/07/17 08:26:20;;;;;;;7.72;6.00;;;26.10;75.40;;;;;;5054421;28;20178;-82
2023/07/17 08:28:46;;;;;;;6.60;5.65;;;26.60;1.00;;;;;;5064691;28;20219;-83
2023/07/17 08:31:12;;;;;;;7.65;5.82;;;26.80;99.90;;;;;;5063351;28;20180;-82
2023/07/17 08:33:38;;;;;;;7.07;5.47;;;26.60;99.90;;;;;;5071543;28;20184;-83
2023/07/17 08:36:04;;;;;;;6.60;5.18;;;26.70;99.90;;;;;;5059182;28;20502;-83
2023/07/17 08:38:29;;;;;;;6.13;5.28;;;27.10;99.90;;;;;;5067880;28;20173;-82
2023/07/17 08:40:55;;;;;;;7.70;5.57;;;26.60;65.30;;;;;;5063773;28;20212;-82
2023/07/17 08:43:24;;;;;;;7.30;6.00;;;26.60;99.90;;;;;;5066971;28;20271;-83
2023/07/17 08:45:52;;;;;;;6.90;5.80;;;27.20;1.00;;;;;;5069259;28;20180;-82
2023/07/17 08:48:19;;;;;;;6.10;5.53;;;27.60;1.00;;;;;;5049248;28;20177;-84
2023/07/17 08:50:45;;;;;;;9.48;6.30;;;29.00;1.00;;;;;;5059611;28;20220;-79
2023/07/17 08:53:11;;;;;;;9.38;5.90;;;29.60;1.00;;;;;;5056364;28;20360;-82
2023/07/17 08:55:38;;;;;;;7.20;5.63;;;29.90;99.90;;;;;;5061870;28;20184;-83
2023/07/17 08:58:04;;;;;;;9.18;6.10;;;30.50;99.90;;;;;;5056312;28;20230;-83
2023/07/17 09:00:31;;;;;;;6.55;5.30;;;31.20;99.90;;;;;;5070553;28;20173;-80
2023/07/17 09:02:57;;;;;;;5.38;4.88;;;32.00;99.90;;;;;;5068783;28;20169;-82
2023/07/17 09:05:23;;;;;;;5.53;5.00;;;31.40;99.90;;;;;;5061396;28;20519;-82
2023/07/17 09:07:48;;;;;;;5.38;4.88;;;31.70;99.90;;;;;;5057937;28;20197;-80
2023/07/17 09:10:23;;;;;;;6.78;5.32;;;31.10;99.90;;;;;;5063446;28;20235;-82
2023/07/17 09:12:57;;;;;;;5.88;4.68;;;31.10;99.90;;;;;;5065870;28;20176;-81
2023/07/17 09:15:25;;;;;;;5.78;4.75;;;28.60;99.90;;;;;;5062489;28;20245;-83
2023/07/17 09:17:50;;;;;;;5.43;4.45;;;28.00;99.90;;;;;;5060035;28;20181;-83
2023/07/17 09:20:19;;;;;;;6.28;4.82;;;28.30;99.90;;;;;;5062031;28;20181;-84
2023/07/17 09:22:45;;;;;;;5.07;4.40;;;28.50;99.90;;;;;;5051773;28;20571;-83
2023/07/17 09:25:12;;;;;;;4.85;4.15;;;28.80;99.90;;;;;;5067007;28;20188;-86
2023/07/17 09:27:51;;;;;;;4.85;4.45;;;28.00;99.90;;;;;;5074311;28;20618;-85
2023/07/17 09:30:18;;;;;;;5.15;4.40;;;27.40;99.90;;;;;;5077248;28;20212;-85
2023/07/17 09:32:45;;;;;;;6.53;4.75;;;26.60;1.00;;;;;;5065362;28;20671;-86
2023/07/17 09:35:12;;;;;;;5.10;4.50;;;26.50;1.00;;;;;;5064612;28;20178;-84
2023/07/17 09:37:41;;;;;;;8.65;4.50;;;25.80;1.00;;;;;;5082445;28;20177;-85
2023/07/17 09:40:11;;;;;;;6.18;4.30;;;24.40;1.00;;;;;;5081947;28;20216;-86
2023/07/17 09:42:42;;;;;;;6.28;4.53;;;23.90;1.00;;;;;;5078180;28;20188;-87
2023/07/17 09:45:08;;;;;;;6.18;4.60;;;23.70;99.90;;;;;;5039818;28;20177;-87
2023/07/17 09:47:34;;;;;;;7.80;4.70;;;24.10;1.00;;;;;;5076631;28;20222;-87
2023/07/17 09:50:01;;;;;;;6.15;4.85;;;24.80;99.90;;;;;;5040273;28;20282;-86
2023/07/17 09:52:29;;;;;;;6.85;4.43;;;25.50;1.00;;;;;;5059096;28;20271;-87
2023/07/17 09:54:56;;;;;;;5.38;4.55;;;25.80;99.90;;;;;;5075268;28;20180;-86
2023/07/17 09:57:30;;;;;;;4.78;4.38;;;26.00;1.80;;;;;;5061522;28;20208;-86
2023/07/17 10:00:13;;;;;;;6.20;4.43;;;26.30;1.00;;;;;;5088938;28;20202;-88
2023/07/17 10:02:55;;;;;;;5.20;4.70;;;25.80;49.80;;;;;;5067410;28;20165;-88
2023/07/17 10:05:21;;;;;;;6.13;4.53;;;25.50;99.90;;;;;;5074489;28;20185;-87
2023/07/17 10:07:50;;;;;;;5.35;4.55;;;25.50;99.90;;;;;;5061662;28;20200;-86
2023/07/17 10:10:16;;;;;;;5.25;4.75;;;25.80;99.90;;;;;;5058556;28;20556;-87
2023/07/17 10:12:42;;;;;;;5.70;4.18;;;26.20;1.00;;;;;;5058844;28;20185;-86
2023/07/17 10:15:10;;;;;;;6.60;5.00;;;25.90;1.00;;;;;;5067056;28;20208;-84
2023/07/17 10:17:36;;;;;;;6.13;4.38;;;26.20;1.00;;;;;;5065420;28;20235;-85
2023/07/17 10:20:07;;;;;;;4.60;4.20;;;27.40;1.00;;;;;;5058197;28;20645;-85
2023/07/17 10:22:44;;;;;;;4.22;3.90;;;27.80;1.00;;;;;;5066941;28;20543;-87
2023/07/17 10:25:18;;;;;;;5.65;4.22;;;26.80;1.00;;;;;;5082402;28;20180;-88
2023/07/17 10:27:52;;;;;;;6.90;4.00;;;25.80;1.00;;;;;;5089089;28;20176;-88
2023/07/17 10:30:34;;;;;;;5.63;4.30;;;25.50;94.90;;;;;;5085851;28;20679;-88
2023/07/17 10:33:13;;;;;;;6.43;4.65;;;25.20;99.90;;;;;;5084146;28;20647;-89
2023/07/17 10:35:46;;;;;;;4.72;4.32;;;24.90;1.00;;;;;;5085130;28;20167;-88
2023/07/17 10:38:16;;;;;;;5.13;4.38;;;25.00;99.90;;;;;;5087294;28;20171;-89
2023/07/17 10:40:42;;;;;;;4.80;4.40;;;25.00;99.90;;;;;;5080692;28;20587;-87
2023/07/17 10:43:15;;;;;;;4.82;4.43;;;25.10;99.90;;;;;;5079133;28;20169;-89
2023/07/17 10:45:41;;;;;;;5.05;4.28;;;25.10;99.90;;;;;;5087672;28;20164;-86
2023/07/17 10:48:07;;;;;;;4.55;4.10;;;24.80;1.00;;;;;;5081899;28;20211;-86
2023/07/17 10:50:32;;;;;;;5.20;3.83;;;25.00;99.90;;;;;;5079563;28;20213;-85
2023/07/17 10:53:03;;;;;;;4.20;3.80;;;25.30;99.90;;;;;;5075399;28;20176;-85
2023/07/17 10:55:29;;;;;;;5.50;4.15;;;25.50;99.90;;;;;;5058464;28;20632;-86
2023/07/17 10:57:56;;;;;;;4.32;3.85;;;26.10;1.00;;;;;;5087161;28;20243;-87
2023/07/17 11:00:22;;;;;;;5.18;3.90;;;25.80;1.00;;;;;;5069854;28;20173;-88
2023/07/17 11:02:47;;;;;;;4.45;3.95;;;26.20;1.00;;;;;;5072321;28;20605;-86
2023/07/17 11:05:13;;;;;;;6.97;4.28;;;27.40;1.00;;;;;;5071866;28;20179;-87
2023/07/17 11:07:39;;;;;;;6.15;4.55;;;27.50;1.00;;;;;;5070711;28;20205;-87
2023/07/17 11:10:11;;;;;;;6.43;4.25;;;27.30;1.00;;;;;;5072773;28;20678;-88
2023/07/17 11:12:38;;;;;;;5.80;4.22;;;27.50;1.00;;;;;;5077366;28;20320;-87
2023/07/17 11:15:05;;;;;;;4.63;4.15;;;27.10;1.00;;;;;;5062735;28;20193;-84
2023/07/17 11:17:30;;;;;;;5.50;3.85;;;26.50;1.00;;;;;;5064224;28;20257;-87
2023/07/17 11:20:03;;;;;;;7.60;4.53;;;26.40;1.00;;;;;;5075628;28;20177;-86
2023/07/17 11:22:32;;;;;;;5.55;4.47;;;26.10;1.00;;;;;;5066064;28;20179;-86
2023/07/17 11:24:58;;;;;;;5.78;4.35;;;25.50;1.00;;;;;;5076639;28;20180;-85
2023/07/17 11:27:24;;;;;;;5.32;4.25;;;24.70;99.90;;;;;;5074101;28;20596;-85
2023/07/17 11:29:50;;;;;;;8.00;4.53;;;24.60;1.00;;;;;;5080798;28;20287;-87
2023/07/17 11:32:20;;;;;;;6.50;4.68;;;24.00;1.00;;;;;;5078215;28;20173;-83
2023/07/17 11:34:56;;;;;;;8.50;4.93;;;22.60;1.00;;;;;;5069794;28;20674;-80
2023/07/17 11:37:34;;;;;;;7.82;5.00;;;22.00;1.00;;;;;;5056227;28;20172;-82
2023/07/17 11:40:05;;;;;;;8.95;5.38;;;21.30;1.00;;;;;;5070614;28;20204;-83
2023/07/17 11:43:02;;;;;;;7.72;5.22;;;21.00;1.00;;;;;;5040217;28;20192;-84
2023/07/17 11:45:28;;;;;;;8.90;4.50;;;21.00;1.00;;;;;;5076866;28;20275;-84
2023/07/17 11:47:55;;;;;;;6.38;5.30;;;21.10;1.00;;;;;;5058301;28;20220;-82
2023/07/17 11:50:24;;;;;;;6.85;4.85;;;21.10;1.00;;;;;;5073053;28;20212;-82
2023/07/17 11:53:06;;;;;;;7.15;5.47;;;21.20;1.00;;;;;;5062527;28;20271;-84
2023/07/17 11:55:36;;;;;;;8.00;5.38;;;21.60;1.00;;;;;;5053814;28;20182;-84
2023/07/17 11:58:11;;;;;;;6.70;4.90;;;21.80;1.00;;;;;;5061876;28;20663;-81
2023/07/17 12:00:43;;;;;;;6.85;4.78;;;22.00;1.00;;;;;;5054417;28;20632;-82
2023/07/17 12:03:10;;;;;;;4.72;4.25;;;22.80;1.00;;;;;;5057145;28;20207;-83
2023/07/17 12:05:36;;;;;;;4.82;4.30;;;23.00;1.00;;;;;;5069837;28;20229;-81
2023/07/17 12:08:03;;;;;;;7.03;4.90;;;23.20;1.00;;;;;;5075902;28;20228;-81
2023/07/17 12:10:28;;;;;;;6.72;4.47;;;23.30;99.90;;;;;;5068217;28;20227;-82
2023/07/17 12:12:54;;;;;;;6.40;4.25;;;23.40;1.00;;;;;;5074951;28;20256;-82
2023/07/17 12:15:20;;;;;;;7.40;3.97;;;23.40;99.90;;;;;;5071218;28;20180;-82
2023/07/17 12:17:46;;;;;;;6.97;4.50;;;23.50;1.00;;;;;;5060999;28;20170;-83
2023/07/17 12:20:15;;;;;;;7.03;4.68;;;23.50;1.00;;;;;;5073584;28;20676;-82
2023/07/17 12:22:41;;;;;;;5.68;4.30;;;23.90;1.00;;;;;;5070750;28;20181;-83
2023/07/17 12:25:07;;;;;;;6.35;3.80;;;23.80;99.90;;;;;;5086078;28;20177;-85
2023/07/17 12:27:33;;;;;;;5.75;4.15;;;23.50;99.90;;;;;;5069464;28;20220;-84
2023/07/17 12:29:58;;;;;;;5.88;4.57;;;23.40;1.00;;;;;;5064410;28;20208;-86
2023/07/17 12:32:24;;;;;;;5.65;4.43;;;23.40;1.00;;;;;;5075871;28;20640;-84
2023/07/17 12:34:50;;;;;;;5.63;4.53;;;23.00;99.90;;;;;;5077442;28;20237;-84
2023/07/17 12:37:16;;;;;;;4.90;4.50;;;22.80;1.00;;;;;;5053226;28;20181;-83
2023/07/17 12:39:41;;;;;;;6.13;4.57;;;23.10;1.00;;;;;;5071263;28;20735;-81
2023/07/17 12:42:07;;;;;;;7.07;4.60;;;23.00;99.90;;;;;;5047175;28;20188;-85
2023/07/17 12:44:33;;;;;;;7.50;4.13;;;23.30;99.90;;;;;;5073423;28;20294;-83
2023/07/17 12:46:59;;;;;;;6.45;4.47;;;23.40;99.90;;;;;;5040111;28;20644;-84
2023/07/17 12:49:24;;;;;;;5.82;4.60;;;23.50;1.00;;;;;;5052840;28;20278;-83